Time;durP1;ratioP1;P1;durP2;ratioP2;P2;SDS_P1;SDS_P2;PMS_P1;PMS_P2;Temp;Humidity;BMP_temperature;BMP_pressure;BME280_temperature;BME280_humidity;BME280_pressure;Samples;Min_cycle;Max_cycle;Signal;HPM_P1;HPM_P2
2023/03/14 00:01:49;;;;;;;1999.90;999.90;;;11.90;99.90;;;;;;6645700;88;20292;-78
2023/03/14 00:11:49;;;;;;;1999.90;999.90;;;11.90;99.90;;;;;;6648200;88;20310;-77
2023/03/14 00:21:50;;;;;;;1999.90;999.90;;;11.80;99.90;;;;;;6649174;88;20323;-75
2023/03/14 00:31:50;;;;;;;1999.90;999.90;;;11.90;99.90;;;;;;6649522;88;20207;-77
2023/03/14 00:41:51;;;;;;;1999.90;999.90;;;12.00;99.90;;;;;;6648127;88;20273;-78
2023/03/14 00:51:52;;;;;;;1999.90;999.90;;;12.00;99.90;;;;;;6648157;88;20334;-78
2023/03/14 01:01:52;;;;;;;1999.90;999.90;;;12.00;99.90;;;;;;6650431;88;20200;-78
2023/03/14 01:11:53;;;;;;;1999.90;999.90;;;11.90;99.90;;;;;;6649015;88;20220;-77
2023/03/14 01:21:53;;;;;;;1999.90;999.90;;;12.00;99.90;;;;;;6646444;89;20184;-77
2023/03/14 01:31:54;;;;;;;1999.90;999.90;;;12.00;99.90;;;;;;6650070;88;20177;-77
2023/03/14 01:41:55;;;;;;;1999.90;999.90;;;12.10;99.90;;;;;;6644379;89;20601;-78
2023/03/14 01:52:15;;;;;;;1999.90;999.90;;;12.00;99.90;;;;;;6649266;89;20625;-76
2023/03/14 02:02:16;;;;;;;1999.90;999.90;;;11.90;99.90;;;;;;6645499;88;20267;-77
2023/03/14 02:12:19;;;;;;;1999.90;999.90;;;11.50;99.90;;;;;;6648494;89;20819;-75
2023/03/14 02:22:20;;;;;;;1999.90;999.90;;;11.00;99.90;;;;;;6646760;88;20215;-78
2023/03/14 02:32:23;;;;;;;1999.90;999.90;;;11.00;99.90;;;;;;6652805;88;20258;-77
2023/03/14 02:42:23;;;;;;;1999.90;999.90;;;11.00;99.90;;;;;;6663876;89;20212;-76
2023/03/14 02:52:24;;;;;;;1999.90;999.90;;;11.00;99.90;;;;;;6667693;88;20313;-76
2023/03/14 03:02:25;;;;;;;1999.90;999.90;;;10.80;99.90;;;;;;6651224;88;20223;-78
2023/03/14 03:12:25;;;;;;;1999.90;999.90;;;10.80;99.90;;;;;;6646453;89;20673;-78
2023/03/14 03:22:26;;;;;;;1999.90;999.90;;;10.80;99.90;;;;;;6655231;88;20558;-78
2023/03/14 03:32:26;;;;;;;1999.90;999.90;;;10.90;99.90;;;;;;6642547;88;20239;-78
2023/03/14 03:42:27;;;;;;;1999.90;999.90;;;11.00;99.90;;;;;;6643783;89;20302;-77
2023/03/14 03:52:28;;;;;;;1999.90;999.90;;;11.10;99.90;;;;;;6644153;88;20212;-77
2023/03/14 04:02:28;;;;;;;1999.90;999.90;;;11.10;99.90;;;;;;6647418;88;20650;-78
2023/03/14 04:12:29;;;;;;;1999.90;999.90;;;11.00;99.90;;;;;;6645301;89;20725;-77
2023/03/14 04:22:29;;;;;;;1999.90;999.90;;;10.90;99.90;;;;;;6644832;88;20172;-75
2023/03/14 04:32:30;;;;;;;1999.90;999.90;;;11.00;99.90;;;;;;6644997;88;20232;-78
2023/03/14 04:42:30;;;;;;;1999.90;999.90;;;11.10;99.90;;;;;;6643260;88;20714;-77
2023/03/14 04:52:31;;;;;;;1999.90;999.90;;;11.20;99.90;;;;;;6639765;88;20257;-77
2023/03/14 05:02:32;;;;;;;1999.90;999.90;;;10.50;99.90;;;;;;6643457;88;20259;-76
2023/03/14 05:12:32;;;;;;;1999.90;999.90;;;10.10;99.90;;;;;;6640972;88;20193;-77
2023/03/14 05:22:33;;;;;;;1999.90;999.90;;;10.10;99.90;;;;;;6645525;88;20348;-75
2023/03/14 05:32:33;;;;;;;1999.90;999.90;;;10.20;99.90;;;;;;6645448;89;20662;-77
2023/03/14 05:42:34;;;;;;;1999.90;999.90;;;10.10;99.90;;;;;;6654461;88;20359;-78
2023/03/14 05:52:34;;;;;;;1999.90;999.90;;;10.10;99.90;;;;;;6650677;89;20211;-77
2023/03/14 06:02:35;;;;;;;1999.90;999.90;;;10.00;99.90;;;;;;6641476;88;20720;-77
2023/03/14 06:12:36;;;;;;;1999.90;999.90;;;10.10;99.90;;;;;;6641069;88;20233;-76
2023/03/14 06:22:36;;;;;;;1999.90;999.90;;;10.10;99.90;;;;;;6643884;88;20178;-76
2023/03/14 06:32:37;;;;;;;1999.90;999.90;;;9.90;99.90;;;;;;6646940;88;20197;-75
2023/03/14 06:42:37;;;;;;;1999.90;999.90;;;9.90;99.90;;;;;;6641823;88;20323;-75
2023/03/14 06:52:41;;;;;;;1999.90;999.90;;;10.00;99.90;;;;;;6640725;88;20212;-75
2023/03/14 07:02:41;;;;;;;1999.90;999.90;;;10.10;99.90;;;;;;6640015;88;20220;-77
2023/03/14 07:12:42;;;;;;;1999.90;999.90;;;10.30;99.90;;;;;;6645737;88;20313;-76
2023/03/14 07:22:42;;;;;;;1999.90;999.90;;;10.70;99.90;;;;;;6653955;88;20690;-76
2023/03/14 07:32:43;;;;;;;1999.90;999.90;;;11.00;99.90;;;;;;6657440;89;20185;-75
2023/03/14 07:42:43;;;;;;;1999.90;999.90;;;11.40;99.90;;;;;;6646943;88;20217;-76
2023/03/14 07:52:44;;;;;;;1999.90;999.90;;;11.80;99.90;;;;;;6647584;88;20250;-77
2023/03/14 08:02:44;;;;;;;1999.90;999.90;;;12.30;99.90;;;;;;6640707;88;20524;-78
2023/03/14 08:12:45;;;;;;;1999.90;999.90;;;12.90;99.90;;;;;;6651476;88;20732;-77
2023/03/14 08:22:45;;;;;;;1999.90;999.90;;;13.20;99.90;;;;;;6641574;88;20664;-77
2023/03/14 08:32:46;;;;;;;1999.90;999.90;;;13.20;99.90;;;;;;6642546;88;20747;-76
2023/03/14 08:42:46;;;;;;;1999.90;999.90;;;12.80;99.90;;;;;;6637678;89;20721;-75
2023/03/14 08:52:47;;;;;;;1999.90;999.90;;;12.80;99.90;;;;;;6637059;88;20215;-75
2023/03/14 09:02:47;;;;;;;1999.90;999.90;;;12.60;99.90;;;;;;6647037;88;20338;-75
2023/03/14 09:12:48;;;;;;;1999.90;999.90;;;12.80;99.90;;;;;;6640987;89;20346;-76
2023/03/14 09:22:48;;;;;;;1999.90;999.90;;;12.60;99.90;;;;;;6641701;89;20184;-75
2023/03/14 09:32:49;;;;;;;1999.90;999.90;;;11.70;99.90;;;;;;6637600;89;20299;-75
2023/03/14 09:42:54;;;;;;;1999.90;999.90;;;11.60;99.90;;;;;;6637131;89;20192;-75
2023/03/14 09:53:01;;;;;;;1999.90;999.90;;;11.30;99.90;;;;;;6637217;89;20211;-74
2023/03/14 10:03:11;;;;;;;1999.90;999.90;;;11.20;99.90;;;;;;6638093;89;21074;-75
2023/03/14 10:13:21;;;;;;;1999.90;999.90;;;9.60;99.90;;;;;;6635920;89;20240;-76
2023/03/14 10:23:29;;;;;;;1999.90;999.90;;;8.80;99.90;;;;;;6643399;88;20256;-76
2023/03/14 10:33:35;;;;;;;1999.90;999.90;;;8.50;99.90;;;;;;6639593;89;20739;-76
2023/03/14 10:43:36;;;;;;;1999.90;999.90;;;8.10;99.90;;;;;;6639460;88;20269;-75
2023/03/14 10:53:44;;;;;;;1999.90;999.90;;;8.10;99.90;;;;;;6639260;88;20252;-76
2023/03/14 11:03:53;;;;;;;1999.90;999.90;;;7.90;99.90;;;;;;6641930;88;20682;-75
2023/03/14 11:13:58;;;;;;;1999.90;999.90;;;8.10;99.90;;;;;;6639845;88;20184;-76
2023/03/14 11:24:23;;;;;;;1999.90;999.90;;;8.30;99.90;;;;;;6642092;89;20258;-76
2023/03/14 11:34:40;;;;;;;1999.90;999.90;;;8.30;99.90;;;;;;6635083;89;20580;-75
2023/03/14 11:44:45;;;;;;;1999.90;999.90;;;8.40;99.90;;;;;;6638684;88;20364;-76
2023/03/14 11:54:58;;;;;;;1999.90;999.90;;;8.90;99.90;;;;;;6641451;88;20706;-75
2023/03/14 12:05:37;;;;;;;1999.90;999.90;;;9.50;99.90;;;;;;6651961;89;20188;-76
2023/03/14 12:15:47;;;;;;;1999.90;999.90;;;9.80;99.90;;;;;;6648309;88;20206;-76
2023/03/14 12:26:05;;;;;;;1999.90;999.90;;;9.80;99.90;;;;;;6645520;88;20251;-76
2023/03/14 12:36:19;;;;;;;1999.90;999.90;;;7.40;99.90;;;;;;6641855;88;20764;-77
2023/03/14 12:46:22;;;;;;;1999.90;999.90;;;6.80;99.90;;;;;;6644790;89;20168;-76
2023/03/14 12:56:49;;;;;;;1999.90;999.90;;;6.90;99.90;;;;;;6636575;89;20269;-77
2023/03/14 13:06:58;;;;;;;1999.90;999.90;;;7.00;99.90;;;;;;6646876;88;20287;-77
2023/03/14 13:17:01;;;;;;;1999.90;999.90;;;7.30;99.90;;;;;;6646852;88;20180;-76
2023/03/14 13:27:01;;;;;;;1999.90;999.90;;;7.70;99.90;;;;;;6642283;88;20257;-76
2023/03/14 13:37:02;;;;;;;1999.90;999.90;;;7.20;99.90;;;;;;6644423;88;20290;-77
2023/03/14 13:47:06;;;;;;;1999.90;999.90;;;6.80;99.90;;;;;;6645086;89;20233;-78
2023/03/14 13:57:06;;;;;;;1999.90;999.90;;;6.50;99.90;;;;;;6645952;89;20200;-78
2023/03/14 14:07:09;;;;;;;1999.90;999.90;;;6.30;99.90;;;;;;6645954;88;20214;-77
2023/03/14 14:17:15;;;;;;;1999.90;999.90;;;6.40;99.90;;;;;;6647812;88;20192;-77
2023/03/14 14:27:28;;;;;;;1999.90;999.90;;;6.50;99.90;;;;;;6647310;88;20178;-77
2023/03/14 14:37:43;;;;;;;1999.90;999.90;;;5.70;99.90;;;;;;6646456;88;20230;-78
2023/03/14 14:47:51;;;;;;;1999.90;999.90;;;5.40;99.90;;;;;;6644730;89;20192;-77
2023/03/14 14:57:55;;;;;;;1999.90;999.90;;;5.40;99.90;;;;;;6643376;88;20255;-77
2023/03/14 15:19:01;;;;;;;1999.90;999.90;;;5.50;99.90;;;;;;6654106;89;20214;-79
2023/03/14 15:29:02;;;;;;;1999.90;999.90;;;5.50;99.90;;;;;;6653004;89;20208;-78
2023/03/14 15:39:05;;;;;;;1999.90;999.90;;;5.30;99.90;;;;;;6653544;89;20741;-77
2023/03/14 15:49:05;;;;;;;1999.90;999.90;;;5.20;99.90;;;;;;6651154;89;20270;-78
2023/03/14 15:59:06;;;;;;;1999.90;999.90;;;5.10;99.90;;;;;;6651808;89;20244;-77
2023/03/14 16:09:07;;;;;;;1999.90;999.90;;;5.20;99.90;;;;;;6650389;89;20203;-77
2023/03/14 16:19:07;;;;;;;1999.90;999.90;;;5.30;99.90;;;;;;6645944;89;20250;-76
2023/03/14 16:29:08;;;;;;;1999.90;999.90;;;5.30;99.90;;;;;;6656747;89;21033;-77
2023/03/14 16:39:08;;;;;;;1999.90;999.90;;;5.30;99.90;;;;;;6649282;89;20252;-77
2023/03/14 16:49:09;;;;;;;1999.90;999.90;;;5.20;99.90;;;;;;6647913;89;20228;-77
2023/03/14 16:59:10;;;;;;;1999.90;999.90;;;5.30;99.90;;;;;;6648645;89;20214;-79
2023/03/14 17:09:10;;;;;;;1999.90;999.90;;;5.30;99.90;;;;;;6651212;89;20194;-79
2023/03/14 17:19:11;;;;;;;1999.90;999.90;;;5.50;99.90;;;;;;6651102;89;20239;-78
2023/03/14 17:29:11;;;;;;;1999.90;999.90;;;5.40;99.90;;;;;;6649480;89;20785;-78
2023/03/14 17:39:12;;;;;;;1999.90;999.90;;;5.40;99.90;;;;;;6661184;89;20312;-78
2023/03/14 17:49:12;;;;;;;1999.90;999.90;;;5.40;99.90;;;;;;6669281;89;20328;-79
2023/03/14 17:59:13;;;;;;;1999.90;999.90;;;5.40;99.90;;;;;;6676174;89;20229;-78
2023/03/14 18:09:14;;;;;;;1999.90;999.90;;;5.50;99.90;;;;;;6673130;89;20224;-79
2023/03/14 18:19:15;;;;;;;1999.90;999.90;;;5.60;99.90;;;;;;6670278;89;20192;-79
2023/03/14 18:29:16;;;;;;;1999.90;999.90;;;5.50;99.90;;;;;;6670515;89;20536;-79
2023/03/14 18:39:16;;;;;;;1999.90;999.90;;;5.70;99.90;;;;;;6671833;89;21162;-79
2023/03/14 18:49:17;;;;;;;1999.90;999.90;;;5.40;99.90;;;;;;6668463;89;20801;-78
2023/03/14 18:59:18;;;;;;;1999.90;999.90;;;5.30;99.90;;;;;;6668233;89;20620;-77
2023/03/14 19:09:18;;;;;;;1999.90;999.90;;;5.20;99.90;;;;;;6669963;89;20191;-79
2023/03/14 19:19:19;;;;;;;1999.90;999.90;;;5.20;99.90;;;;;;6671266;89;20200;-78
2023/03/14 19:29:20;;;;;;;1999.90;999.90;;;5.30;99.90;;;;;;6670235;89;20192;-77
2023/03/14 19:39:21;;;;;;;1999.90;999.90;;;5.30;99.90;;;;;;6636204;89;20234;-79
2023/03/14 19:49:21;;;;;;;1999.90;999.90;;;5.10;99.90;;;;;;6642304;89;20246;-77
2023/03/14 19:59:22;;;;;;;1999.90;999.90;;;5.00;99.90;;;;;;6661219;88;20229;-76
2023/03/14 20:09:22;;;;;;;1999.90;999.90;;;5.00;99.90;;;;;;6653591;89;20196;-77
2023/03/14 20:19:23;;;;;;;1999.90;999.90;;;5.00;99.90;;;;;;6648415;89;20285;-77
2023/03/14 20:29:24;;;;;;;1999.90;999.90;;;4.80;99.90;;;;;;6646843;89;20183;-76
2023/03/14 20:39:24;;;;;;;1999.90;999.90;;;4.70;99.90;;;;;;6647760;89;20279;-77
2023/03/14 20:49:25;;;;;;;1999.90;999.90;;;4.70;99.90;;;;;;6644232;89;20257;-76
2023/03/14 20:59:27;;;;;;;1999.90;999.90;;;4.50;99.90;;;;;;6650314;89;20214;-78
2023/03/14 21:09:27;;;;;;;1999.90;999.90;;;4.40;99.90;;;;;;6649436;89;20195;-77
2023/03/14 21:19:31;;;;;;;1999.90;999.90;;;4.10;99.90;;;;;;6650864;89;20620;-77
2023/03/14 21:29:35;;;;;;;1999.90;999.90;;;4.10;99.90;;;;;;6651579;89;20227;-79
2023/03/14 21:39:36;;;;;;;1999.90;999.90;;;3.90;99.90;;;;;;6656824;89;20670;-78
2023/03/14 21:49:36;;;;;;;1999.90;999.90;;;3.70;99.90;;;;;;6656270;89;20200;-77
2023/03/14 21:59:38;;;;;;;1999.90;999.90;;;3.60;99.90;;;;;;6654535;89;20662;-78
2023/03/14 22:09:40;;;;;;;1999.90;999.90;;;3.40;99.90;;;;;;6651501;88;20300;-77
2023/03/14 22:19:41;;;;;;;1999.90;999.90;;;3.30;99.90;;;;;;6655046;89;20240;-77
2023/03/14 22:29:41;;;;;;;1999.90;999.90;;;3.20;99.90;;;;;;6655077;89;20329;-78
2023/03/14 22:39:44;;;;;;;1999.90;999.90;;;3.10;99.90;;;;;;6657652;89;20200;-77
2023/03/14 22:49:45;;;;;;;1999.90;999.90;;;3.00;99.90;;;;;;6657364;89;20191;-80
2023/03/14 22:59:45;;;;;;;1999.90;999.90;;;2.90;99.90;;;;;;6666919;89;20270;-77
2023/03/14 23:09:46;;;;;;;1999.90;999.90;;;2.80;99.90;;;;;;6655194;89;20241;-79
2023/03/14 23:19:46;;;;;;;1999.90;999.90;;;2.70;99.90;;;;;;6655992;89;20320;-78
2023/03/14 23:29:47;;;;;;;1999.90;999.90;;;2.70;99.90;;;;;;6655411;89;20298;-79
2023/03/14 23:39:48;;;;;;;1999.90;999.90;;;2.70;99.90;;;;;;6666010;88;20511;-78
2023/03/14 23:49:48;;;;;;;1999.90;999.90;;;2.80;99.90;;;;;;6652846;88;20215;-79
2023/03/14 23:59:48;;;;;;;1999.90;999.90;;;2.60;99.90;;;;;;6655626;89;20196;-78
